Latest Weather Observations for Hindmarsh Island

IDS60801

Issued at 11:31 am CDT Sunday 18 February 2018 (issued every 30 minutes, with the page automatically refreshed every 10 minutes)

About weather observations | Map of weather stations | Latest weather observations for SA | Other Formats
Station Details ID: 023894 Name: HINDMARSH ISLAND AWS Lat: -35.52 Lon: 138.82 Height: 11.0 m
Data from the previous 72 hours. | See also: Recent months at Hindmarsh Island
Date/Time
CDT
Temp
°C
App
Temp
°C
Dew
Point
°C
Rel
Hum
%
Delta-T
°C
Wind Press
QNH
hPa
Press
MSL
hPa
Rain since
9am
mm
Dir  Spd
km/h
Gust
km/h
Spd
kts
Gust
kts
18/11:30am 19.1 16.2 15.0 77 2.4 SSE 24 28 13 15 1013.7 1013.6 0.0
18/11:00am 19.8 17.2 14.8 73 2.9 SSE 22 26 12 14 1013.7 1013.6 0.0
18/10:30am 19.9 16.6 15.1 74 2.8 S 26 32 14 17 1014.3 1014.2 0.0
18/10:00am 19.9 17.5 15.3 75 2.7 SSE 22 28 12 15 1013.4 1013.3 0.0
18/09:30am 19.6 18.4 15.0 75 2.7 SE 15 20 8 11 1013.0 1012.9 0.0
18/09:00am 19.2 18.4 14.0 72 3.0 ESE 11 17 6 9 1012.9 1012.8 0.0
18/08:30am 18.9 18.5 14.0 73 2.8 E 9 13 5 7 1012.5 1012.4 0.0
18/08:00am 17.9 17.5 14.0 78 2.2 ENE 9 11 5 6 1012.2 1012.1 0.0
18/07:30am 15.2 13.9 12.5 84 1.5 E 11 13 6 7 1011.7 1011.6 0.0
18/07:00am 14.8 13.4 12.1 84 1.5 ENE 11 13 6 7 1011.4 1011.3 0.0
18/06:30am 14.8 13.1 12.3 85 1.4 ENE 13 13 7 7 1011.1 1011.0 0.0
18/06:00am 14.8 13.1 12.3 85 1.4 ENE 13 13 7 7 1010.8 1010.7 0.0
18/05:30am 15.5 14.8 13.2 86 1.3 NE 9 11 5 6 1010.6 1010.5 0.0
18/05:00am 15.2 14.0 12.7 85 1.4 NE 11 11 6 6 1010.4 1010.3 0.0
18/04:30am 16.0 15.8 13.1 83 1.6 N 6 7 3 4 1010.7 1010.6 0.0
18/04:00am 16.2 16.1 13.3 83 1.6 N 6 7 3 4 1010.6 1010.5 0.0
18/03:30am 16.5 16.4 13.4 82 1.7 NNW 6 6 3 3 1010.6 1010.5 0.0
18/03:00am 16.4 16.3 13.3 82 1.7 NNW 6 6 3 3 1010.6 1010.5 0.0
18/02:30am 16.3 16.0 13.2 82 1.7 N 7 9 4 5 1011.0 1010.9 0.0
18/02:00am 16.4 16.1 13.3 82 1.7 N 7 9 4 5 1011.2 1011.1 0.0
18/01:30am 16.4 15.2 12.9 80 1.9 NE 11 13 6 7 1011.6 1011.5 0.0
18/01:00am 16.5 15.6 12.5 77 2.2 ENE 9 11 5 6 1011.8 1011.7 0.0
18/12:30am 17.0 16.7 12.7 76 2.4 E 6 7 3 4 1012.0 1011.9 0.0
18/12:00am 17.1 16.1 12.4 74 2.6 ESE 9 13 5 7 1012.3 1012.2 0.0
 
Date/Time
CDT
Temp
°C
App
Temp
°C
Dew
Point
°C
Rel
Hum
%
Delta-T
°C
Wind Press
QNH
hPa
Press
MSL
hPa
Rain since
9am
mm
Dir  Spd
km/h
Gust
km/h
Spd
kts
Gust
kts
17/11:30pm 18.2 16.8 13.5 74 2.7 SE 13 17 7 9 1012.3 1012.2 0.0
17/11:00pm 18.3 16.9 13.4 73 2.8 SE 13 17 7 9 1012.6 1012.5 0.0
17/10:30pm 18.2 16.3 13.1 72 2.9 SSE 15 17 8 9 1012.8 1012.7 0.0
17/10:00pm 18.3 16.9 13.4 73 2.8 SSE 13 17 7 9 1012.9 1012.8 0.0
17/09:30pm 18.5 16.6 13.1 71 3.0 SSE 15 19 8 10 1012.7 1012.6 0.0
17/09:00pm 18.6 15.7 12.8 69 3.3 SSE 20 26 11 14 1012.6 1012.5 0.0
17/08:30pm 18.8 15.2 13.2 70 3.2 S 24 30 13 16 1012.3 1012.2 0.0
17/08:00pm 19.1 15.7 13.7 71 3.1 S 24 28 13 15 1011.9 1011.8 0.0
17/07:30pm 19.5 16.6 14.1 71 3.1 S 22 26 12 14 1011.6 1011.5 0.0
17/07:00pm 19.7 17.2 14.1 70 3.2 SSE 20 24 11 13 1011.6 1011.5 0.0
17/06:30pm 20.1 17.8 14.7 71 3.2 SSE 20 26 11 14 1011.6 1011.5 0.0
17/06:00pm 21.0 18.2 14.4 66 3.9 SSE 22 28 12 15 1011.8 1011.7 0.0
17/05:30pm 20.9 18.0 14.1 65 3.9 S 22 28 12 15 1011.6 1011.5 0.0
17/05:00pm 21.5 18.4 14.4 64 4.2 SSE 24 30 13 16 1011.7 1011.6 0.0
17/04:30pm 22.2 18.6 14.3 61 4.6 S 26 30 14 16 1012.0 1011.9 0.0
17/04:00pm 22.0 17.9 13.9 60 4.7 S 28 32 15 17 1012.2 1012.1 0.0
17/03:30pm 21.9 18.4 13.3 58 4.9 S 24 30 13 16 1012.4 1012.3 0.0
17/03:00pm 22.2 17.7 12.7 55 5.4 S 28 33 15 18 1012.5 1012.4 0.0
17/02:30pm 21.4 16.9 12.5 57 5.0 S 28 33 15 18 1012.7 1012.6 0.0
17/02:00pm 22.5 17.9 13.6 57 5.2 S 30 33 16 18 1012.7 1012.6 0.0
17/01:30pm 20.8 16.0 13.0 61 4.4 SSE 30 35 16 19 1012.6 1012.5 0.0
17/01:00pm 22.6 19.0 14.2 59 4.9 SSE 26 30 14 16 1012.8 1012.7 0.0
17/12:30pm 23.0 20.1 12.9 53 5.8 SE 20 28 11 15 1013.1 1013.0 0.0
17/12:00pm 22.8 19.6 13.0 54 5.6 S 22 26 12 14 1013.9 1013.8 0.0
17/11:30am 21.8 20.7 11.8 53 5.6 SSE 9 13 5 7 1014.1 1014.0 0.0
17/11:00am 20.9 20.0 11.5 55 5.2 ENE 7 13 4 7 1014.6 1014.5 0.0
17/10:30am 20.6 18.2 11.5 56 5.0 NNE 15 20 8 11 1014.5 1014.4 0.0
17/10:00am 19.6 17.1 11.1 58 4.6 NNE 15 20 8 11 1014.9 1014.8 0.0
17/09:30am 18.7 15.8 11.0 61 4.2 NNE 17 26 9 14 1014.9 1014.8 0.0
17/09:00am 17.7 15.4 11.9 69 3.2 NNE 15 20 8 11 1014.9 1014.8 0.0
17/08:30am 16.7 14.4 11.6 72 2.8 NNE 15 20 8 11 1014.8 1014.7 0.0
17/08:00am 15.7 14.3 12.1 79 2.0 N 11 15 6 8 1014.7 1014.6 0.0
17/07:30am 14.7 13.2 11.8 83 1.6 N 11 13 6 7 1014.3 1014.2 0.0
17/07:00am 14.0 12.7 11.3 84 1.4 N 9 11 5 6 1013.7 1013.6 0.0
17/06:30am 14.0 12.3 11.3 84 1.4 N 11 15 6 8 1013.4 1013.3 0.0
17/06:00am 14.2 12.2 11.5 84 1.4 N 13 15 7 8 1012.9 1012.8 0.0
17/05:30am 14.2 12.2 11.5 84 1.4 N 13 15 7 8 1012.7 1012.6 0.0
17/05:00am 14.4 13.2 11.7 84 1.4 NNW 9 11 5 6 1013.0 1012.9 0.0
17/04:30am 14.8 13.8 12.3 85 1.4 N 9 11 5 6 1013.0 1012.9 0.0
17/04:00am 15.0 14.4 12.3 84 1.5 N 7 9 4 5 1013.1 1013.0 0.0
17/03:30am 15.3 14.8 12.2 82 1.7 NNE 6 6 3 3 1013.4 1013.3 0.0
17/03:00am 15.5 15.1 12.3 81 1.7 NNE 6 7 3 4 1013.5 1013.4 0.0
17/02:30am 15.7 15.3 12.5 81 1.8 N 6 7 3 4 1013.7 1013.6 0.0
17/02:00am 15.5 14.4 12.1 80 1.9 N 9 9 5 5 1013.8 1013.7 0.0
17/01:30am 15.9 15.3 12.3 79 2.0 N 7 9 4 5 1014.5 1014.4 0.0
17/01:00am 16.0 15.2 11.8 76 2.3 ENE 7 9 4 5 1014.7 1014.6 0.0
17/12:30am 15.8 14.9 11.2 74 2.5 ENE 7 9 4 5 1014.7 1014.6 0.0
17/12:00am 15.8 14.8 11.0 73 2.6 E 7 9 4 5 1015.0 1014.9 0.0
 
Date/Time
CDT
Temp
°C
App
Temp
°C
Dew
Point
°C
Rel
Hum
%
Delta-T
°C
Wind Press
QNH
hPa
Press
MSL
hPa
Rain since
9am
mm
Dir  Spd
km/h
Gust
km/h
Spd
kts
Gust
kts
16/11:30pm 17.1 15.6 11.8 71 2.9 SE 11 13 6 7 1015.3 1015.3 0.0
16/11:00pm 17.3 15.3 11.6 69 3.1 SSE 13 15 7 8 1015.3 1015.3 0.0
16/10:30pm 17.6 15.4 12.1 70 3.0 SSE 15 19 8 10 1015.4 1015.4 0.0
16/10:00pm 17.6 15.0 12.1 70 3.0 SSE 17 20 9 11 1015.3 1015.3 0.0
16/09:30pm 17.7 15.2 12.2 70 3.0 SSE 17 20 9 11 1015.1 1015.1 0.0
16/09:00pm 17.9 14.8 12.1 69 3.2 SSE 20 24 11 13 1015.0 1014.9 0.0
16/08:30pm 18.1 15.0 12.3 69 3.2 S 20 24 11 13 1015.0 1014.9 0.0
16/08:00pm 18.3 15.3 12.1 67 3.4 SSE 19 24 10 13 1015.0 1014.9 0.0
16/07:30pm 18.9 15.7 11.9 64 3.9 S 20 24 11 13 1014.8 1014.7 0.0
16/07:00pm 19.4 16.1 11.7 61 4.3 SSE 20 24 11 13 1014.8 1014.7 0.0
16/06:30pm 20.1 17.1 12.6 62 4.2 SSE 20 28 11 15 1014.9 1014.8 0.0
16/06:00pm 20.1 16.2 12.1 60 4.5 SSE 24 32 13 17 1014.8 1014.7 0.0
16/05:30pm 20.6 17.5 12.1 58 4.8 SSE 20 26 11 14 1014.9 1014.8 0.0
16/05:00pm 21.4 18.4 12.5 57 5.0 S 20 28 11 15 1015.0 1014.9 0.0
16/04:30pm 21.2 17.4 11.2 53 5.5 S 22 28 12 15 1015.2 1015.2 0.0
16/04:00pm 21.1 17.0 11.4 54 5.4 SSE 24 30 13 16 1015.2 1015.2 0.0
16/03:30pm 21.3 17.5 13.5 61 4.5 SSE 26 32 14 17 1015.6 1015.6 0.0
16/03:00pm 21.5 17.9 12.9 58 4.9 S 24 30 13 16 1015.8 1015.8 0.0
16/02:30pm 22.1 19.4 12.9 56 5.3 S 19 24 10 13 1016.1 1016.1 0.0
16/02:00pm 21.6 20.0 12.7 57 5.1 S 13 19 7 10 1016.3 1016.3 0.0
16/01:30pm 20.7 18.9 12.1 58 4.8 S 13 19 7 10 1016.5 1016.5 0.0
16/01:00pm 21.1 19.5 12.8 59 4.7 S 13 19 7 10 1016.6 1016.6 0.0
16/12:30pm 20.8 18.4 12.5 59 4.7 SSE 17 20 9 11 1016.8 1016.8 0.0
16/12:00pm 21.3 19.6 12.4 57 5.0 SSE 13 22 7 12 1016.9 1016.9 0.0
16/11:30am 20.7 19.2 13.2 62 4.3 S 13 20 7 11 1017.0 1017.0 0.0
16/11:00am 19.6 17.1 12.4 63 4.0 S 17 26 9 14 1017.0 1017.0 0.0
16/10:30am 19.7 16.6 12.2 62 4.2 S 20 28 11 15 1016.8 1016.8 0.0
16/10:00am 19.2 16.2 12.7 66 3.7 S 20 26 11 14 1016.8 1016.8 0.0
16/09:30am 19.6 16.9 13.5 68 3.5 S 20 28 11 15 1017.0 1017.0 0.0
16/09:00am 18.3 15.8 13.6 74 2.7 SSE 19 22 10 12 1016.9 1016.9 0.0
16/08:30am 17.9 15.3 13.8 77 2.3 SSE 20 24 11 13 1016.7 1016.7 0.0
16/08:00am 17.8 14.7 13.5 76 2.4 S 22 28 12 15 1016.2 1016.2 0.0
16/07:30am 17.7 14.7 13.8 78 2.2 SSE 22 24 12 13 1015.7 1015.7 0.0
16/07:00am 17.8 16.2 12.9 73 2.7 SSW 13 15 7 8 1015.5 1015.5 0.0
16/06:30am 17.5 15.9 12.8 74 2.6 SSW 13 17 7 9 1015.5 1015.5 0.0
16/06:00am 17.2 15.5 12.5 74 2.6 SSW 13 15 7 8 1015.2 1015.2 0.0
16/05:30am 17.3 14.9 12.8 75 2.5 SSW 17 19 9 10 1015.1 1015.1 0.0
16/05:00am 17.4 15.1 12.9 75 2.5 SSW 17 20 9 11 1015.0 1014.9 0.0
16/04:30am 17.8 14.9 13.9 78 2.2 S 22 26 12 14 1014.8 1014.7 0.0
16/04:00am 18.1 15.4 13.4 74 2.7 SSW 20 26 11 14 1014.6 1014.5 0.0
16/03:30am 18.2 15.8 13.7 75 2.6 SSW 19 22 10 12 1014.9 1014.8 0.0
16/03:00am 18.1 16.0 13.6 75 2.6 SSW 17 22 9 12 1015.0 1014.9 0.0
16/02:30am 17.9 15.2 13.6 76 2.4 SSW 20 26 11 14 1015.1 1015.1 0.0
16/02:00am 17.9 14.8 13.4 75 2.5 SSW 22 26 12 14 1015.2 1015.2 0.0
16/01:30am 17.9 15.1 14.4 80 2.0 SSW 22 26 12 14 1015.2 1015.2 0.0
16/01:00am 17.1 14.9 13.4 79 2.1 SW 17 26 9 14 1015.2 1015.2 0.0
16/12:30am 17.2 15.9 14.7 85 1.4 SW 15 19 8 10 1015.3 1015.3 0.0
16/12:00am 17.9 15.4 14.0 78 2.2 SW 20 24 11 13 1015.4 1015.4 0.0
 
Date/Time
CDT
Temp
°C
App
Temp
°C
Dew
Point
°C
Rel
Hum
%
Delta-T
°C
Wind Press
QNH
hPa
Press
MSL
hPa
Rain since
9am
mm
Dir  Spd
km/h
Gust
km/h
Spd
kts
Gust
kts
15/11:30pm 17.5 15.2 14.0 80 2.0 SW 19 24 10 13 1015.6 1015.6 0.0
15/11:00pm 17.0 16.3 14.3 84 1.5 SW 11 17 6 9 1016.1 1016.1 0.0
15/10:30pm 18.6 15.4 14.3 76 2.5 SW 24 39 13 21 1015.8 1015.8 0.0
15/10:00pm 18.5 16.3 13.4 72 2.9 WSW 17 26 9 14 1015.8 1015.8 0.0
15/09:30pm 18.5 15.6 12.9 70 3.1 SW 20 28 11 15 1015.7 1015.7 0.0
15/09:00pm 18.6 15.4 13.0 70 3.1 SW 22 30 12 16 1015.7 1015.7 0.0
15/08:30pm 18.4 14.9 13.3 72 2.9 SW 24 32 13 17 1015.5 1015.5 0.0
15/08:00pm 18.8 14.6 13.6 72 3.0 SW 28 35 15 19 1015.8 1015.8 0.0
15/07:30pm 19.1 15.1 13.1 68 3.4 SW 26 30 14 16 1015.7 1015.7 0.0
15/07:00pm 19.2 15.6 12.9 67 3.6 SW 24 30 13 16 1015.4 1015.4 0.0
15/06:30pm 19.3 15.3 13.0 67 3.6 SW 26 32 14 17 1015.5 1015.5 0.0
15/06:00pm 19.5 15.0 12.5 64 3.9 SW 28 35 15 19 1015.5 1015.5 0.0
15/05:30pm 19.6 15.1 12.6 64 3.9 SSW 28 32 15 17 1015.6 1015.6 0.0
15/05:00pm 19.7 14.9 12.9 65 3.8 SSW 30 37 16 20 1015.6 1015.6 0.0
15/04:30pm 20.0 14.1 12.3 61 4.3 SSW 35 43 19 23 1015.8 1015.8 0.0
15/04:00pm 20.3 15.3 12.3 60 4.5 SSW 30 37 16 20 1015.6 1015.6 0.0
15/03:30pm 21.0 16.0 11.1 53 5.4 SW 28 33 15 18 1015.8 1015.8 0.0
15/03:00pm 21.4 15.9 12.5 57 5.0 SSW 33 39 18 21 1016.0 1016.0 0.0
15/02:30pm 20.9 15.2 11.3 54 5.3 SSW 32 37 17 20 1016.0 1016.0 0.0
15/02:00pm 21.6 15.3 11.0 51 5.8 SSW 35 41 19 22 1016.2 1016.2 0.0
15/01:30pm 22.9 17.3 12.2 51 6.1 SSW 33 41 18 22 1016.4 1016.4 0.0
15/01:00pm 21.7 16.7 11.1 51 5.9 SSW 28 33 15 18 1016.6 1016.6 0.0
15/12:30pm 21.6 16.1 10.7 50 6.0 SSW 30 37 16 20 1016.8 1016.8 0.0
15/12:00pm 21.6 17.4 11.0 51 5.8 SSW 24 30 13 16 1016.9 1016.9 0.0

Other Formats:

Comma delimited format used in spreadsheet applications
http://www.bom.gov.au/fwo/IDS60801/IDS60801.94677.axf

JavaScript Object Notation format (JSON) in row-major order
http://www.bom.gov.au/fwo/IDS60801/IDS60801.94677.json